Time;durP1;ratioP1;P1;durP2;ratioP2;P2;SDS_P1;SDS_P2;PMS_P1;PMS_P2;Temp;Humidity;BMP_temperature;BMP_pressure;BME280_temperature;BME280_humidity;BME280_pressure;Samples;Min_cycle;Max_cycle;Signal;HPM_P1;HPM_P2
2023/12/25 00:01:04;;;;;;;16.95;4.70;;;;;;;6.17;100.00;94422.50;5075029;28;20037;-82
2023/12/25 00:03:30;;;;;;;29.88;5.43;;;;;;;6.10;100.00;94414.09;5075085;28;20115;-82
2023/12/25 00:05:55;;;;;;;19.33;4.68;;;;;;;6.67;100.00;94410.47;5058413;28;20031;-81
2023/12/25 00:08:21;;;;;;;16.80;4.85;;;;;;;6.83;100.00;94403.63;5074786;28;20028;-82
2023/12/25 00:10:46;;;;;;;15.05;4.85;;;;;;;6.90;100.00;94398.22;5074812;28;20032;-82
2023/12/25 00:13:12;;;;;;;16.77;4.40;;;;;;;6.84;100.00;94402.59;5083557;28;20453;-82
2023/12/25 00:15:38;;;;;;;18.25;5.13;;;;;;;6.78;100.00;94404.34;5074784;28;20081;-82
2023/12/25 00:18:03;;;;;;;16.23;4.85;;;;;;;6.52;100.00;94398.03;5074630;28;20131;-82
2023/12/25 00:20:29;;;;;;;22.40;5.22;;;;;;;6.51;100.00;94397.22;5076020;28;20050;-82
2023/12/25 00:22:54;;;;;;;25.58;5.57;;;;;;;6.44;100.00;94401.84;5076813;28;20028;-82
2023/12/25 00:25:20;;;;;;;18.95;5.07;;;;;;;6.49;100.00;94396.69;5094415;28;20463;-82
2023/12/25 00:27:45;;;;;;;17.02;4.55;;;;;;;6.58;100.00;94401.50;5099719;28;20047;-82
2023/12/25 00:30:11;;;;;;;15.02;4.75;;;;;;;6.87;100.00;94399.50;5098613;28;20344;-82
2023/12/25 00:32:37;;;;;;;19.05;5.03;;;;;;;7.00;100.00;94403.56;5098629;28;20028;-82
2023/12/25 00:35:03;;;;;;;15.27;5.55;;;;;;;6.92;100.00;94402.19;5079742;28;20063;-82
2023/12/25 00:37:29;;;;;;;22.08;5.85;;;;;;;6.55;100.00;94396.78;5064140;28;20523;-84
2023/12/25 00:39:54;;;;;;;16.83;4.93;;;;;;;6.36;100.00;94395.22;5078140;28;20346;-84
2023/12/25 00:42:19;;;;;;;18.00;5.10;;;;;;;6.48;100.00;94402.94;5061394;28;20038;-84
2023/12/25 00:44:45;;;;;;;21.73;5.03;;;;;;;6.70;100.00;94394.38;5083030;28;20024;-84
2023/12/25 00:47:10;;;;;;;13.25;4.85;;;;;;;6.88;100.00;94406.28;5090091;28;20089;-84
2023/12/25 00:49:36;;;;;;;24.48;5.90;;;;;;;6.97;100.00;94398.06;5091550;28;20437;-84
2023/12/25 00:52:01;;;;;;;32.40;7.00;;;;;;;6.68;100.00;94395.63;5099352;28;20028;-84
2023/12/25 00:54:31;;;;;;;20.42;7.50;;;;;;;6.63;100.00;94397.16;5098344;28;20027;-84
2023/12/25 00:56:58;;;;;;;28.42;8.25;;;;;;;6.55;100.00;94400.16;5081848;28;20341;-84
2023/12/25 00:59:23;;;;;;;27.52;7.68;;;;;;;6.55;100.00;94397.53;5060760;28;20037;-85
2023/12/25 01:01:49;;;;;;;24.55;8.00;;;;;;;6.57;100.00;94397.31;5092707;28;20322;-84
2023/12/25 01:04:15;;;;;;;25.92;7.40;;;;;;;6.79;100.00;94402.53;5093768;28;20385;-84
2023/12/25 01:06:40;;;;;;;18.55;5.80;;;;;;;6.69;100.00;94398.00;5060581;28;20028;-85
2023/12/25 01:09:05;;;;;;;27.73;6.03;;;;;;;6.47;100.00;94401.34;5077404;28;20319;-85
2023/12/25 01:11:31;;;;;;;21.10;4.72;;;;;;;6.49;100.00;94403.72;5060965;28;20056;-85
2023/12/25 01:13:56;;;;;;;19.25;5.13;;;;;;;6.80;100.00;94398.91;5077501;28;20127;-85
2023/12/25 01:16:23;;;;;;;15.07;5.10;;;;;;;6.83;100.00;94406.22;5085100;28;20076;-85
2023/12/25 01:18:49;;;;;;;21.60;5.53;;;;;;;6.56;100.00;94393.16;5081170;28;20061;-85
2023/12/25 01:21:15;;;;;;;17.38;5.20;;;;;;;6.40;100.00;94402.56;5080966;28;20382;-85
2023/12/25 01:23:40;;;;;;;21.30;5.78;;;;;;;6.35;100.00;94409.28;5081097;28;20043;-85
2023/12/25 01:26:06;;;;;;;20.85;5.20;;;;;;;6.61;100.00;94406.22;5080755;28;20019;-85
2023/12/25 01:28:31;;;;;;;18.45;5.30;;;;;;;6.44;100.00;94404.44;5097691;28;20478;-84
2023/12/25 01:30:57;;;;;;;17.52;5.65;;;;;;;6.54;100.00;94395.97;5097657;28;20035;-85
2023/12/25 01:33:22;;;;;;;19.10;5.60;;;;;;;6.61;100.00;94401.81;5080285;28;20430;-84
2023/12/25 01:35:47;;;;;;;23.70;5.88;;;;;;;6.39;100.00;94403.59;5096595;28;20024;-84
2023/12/25 01:38:13;;;;;;;17.02;5.63;;;;;;;6.17;100.00;94405.09;5080908;28;20032;-84
2023/12/25 01:40:43;;;;;;;17.80;5.55;;;;;;;6.38;100.00;94407.22;5077034;28;20444;-84
2023/12/25 01:43:08;;;;;;;22.67;5.30;;;;;;;6.45;100.00;94418.22;5076958;28;20030;-84
2023/12/25 01:45:34;;;;;;;24.88;5.22;;;;;;;6.39;100.00;94417.41;5060624;28;20032;-85
2023/12/25 01:48:00;;;;;;;16.55;5.00;;;;;;;6.33;100.00;94413.94;5077916;28;20036;-84
2023/12/25 01:50:25;;;;;;;19.90;5.40;;;;;;;6.31;100.00;94413.38;5094200;28;20055;-85
2023/12/25 01:52:51;;;;;;;19.35;5.20;;;;;;;6.57;100.00;94411.09;5097036;28;20077;-84
2023/12/25 01:55:17;;;;;;;20.42;5.75;;;;;;;6.70;100.00;94414.41;5080328;28;20027;-85
2023/12/25 01:57:42;;;;;;;14.13;5.43;;;;;;;6.66;100.00;94419.28;5079987;28;20051;-85
2023/12/25 02:00:09;;;;;;;15.30;4.85;;;;;;;6.45;100.00;94420.84;5096921;28;20028;-85
2023/12/25 02:02:34;;;;;;;20.23;5.22;;;;;;;6.44;100.00;94427.06;5097099;28;20026;-85
2023/12/25 02:05:00;;;;;;;20.38;4.75;;;;;;;6.50;100.00;94434.69;5096907;28;20023;-85
2023/12/25 02:07:25;;;;;;;20.60;5.32;;;;;;;6.07;100.00;94431.75;5092539;28;20100;-85
2023/12/25 02:09:51;;;;;;;18.92;4.82;;;;;;;6.30;100.00;94426.63;5096721;28;20039;-84
2023/12/25 02:12:16;;;;;;;19.08;4.75;;;;;;;6.17;100.00;94425.91;5096617;28;20027;-85
2023/12/25 02:14:42;;;;;;;15.20;5.05;;;;;;;6.17;100.00;94428.53;5072944;28;20020;-84
2023/12/25 02:17:09;;;;;;;24.38;5.45;;;;;;;6.44;100.00;94419.25;5059777;28;20338;-85
2023/12/25 02:19:38;;;;;;;20.50;4.78;;;;;;;6.11;100.00;94419.06;5076889;28;20028;-84
2023/12/25 02:22:07;;;;;;;17.90;4.72;;;;;;;6.29;100.00;94419.84;5059763;28;20123;-84
2023/12/25 02:24:32;;;;;;;18.08;5.35;;;;;;;6.28;100.00;94413.84;5086520;28;20084;-84
2023/12/25 02:26:58;;;;;;;21.33;4.85;;;;;;;6.15;100.00;94427.97;5079619;28;20032;-84
2023/12/25 02:29:23;;;;;;;16.17;4.97;;;;;;;6.39;100.00;94421.81;5097648;28;20077;-84
2023/12/25 02:31:49;;;;;;;18.45;5.63;;;;;;;6.18;100.00;94424.13;5079473;28;20338;-85
2023/12/25 02:34:15;;;;;;;12.73;4.38;;;;;;;6.46;100.00;94420.59;5083689;28;20036;-85
2023/12/25 02:36:43;;;;;;;21.80;4.75;;;;;;;6.15;100.00;94429.78;5086243;28;20028;-85
2023/12/25 02:39:09;;;;;;;15.07;4.88;;;;;;;6.06;100.00;94424.19;5086391;28;20024;-85
2023/12/25 02:41:34;;;;;;;18.90;4.68;;;;;;;5.80;100.00;94427.16;5084836;28;20024;-85
2023/12/25 02:44:00;;;;;;;23.17;5.28;;;;;;;5.77;100.00;94429.41;5084572;28;20381;-85
2023/12/25 02:46:26;;;;;;;18.40;5.00;;;;;;;5.73;100.00;94434.28;5085775;28;20115;-85
2023/12/25 02:48:51;;;;;;;21.63;5.03;;;;;;;5.84;100.00;94432.66;5094205;28;20138;-85
2023/12/25 02:51:16;;;;;;;15.45;4.82;;;;;;;5.93;100.00;94427.88;5095858;28;20032;-85
2023/12/25 02:53:42;;;;;;;18.63;5.10;;;;;;;6.07;100.00;94423.97;5075858;28;20032;-85
2023/12/25 02:56:07;;;;;;;18.80;5.05;;;;;;;6.06;100.00;94427.59;5075939;28;20514;-85
2023/12/25 02:58:33;;;;;;;18.08;5.28;;;;;;;6.24;100.00;94423.16;5095831;28;20024;-85
2023/12/25 03:00:58;;;;;;;10.77;4.72;;;;;;;6.08;100.00;94424.72;5097053;28;20016;-85
2023/12/25 03:03:24;;;;;;;16.67;4.60;;;;;;;6.18;100.00;94419.69;5090247;28;20181;-85
2023/12/25 03:05:49;;;;;;;27.58;5.63;;;;;;;5.88;100.00;94420.75;5075768;28;20052;-85
2023/12/25 03:08:15;;;;;;;22.35;5.05;;;;;;;6.18;100.00;94408.50;5075594;28;20083;-85
2023/12/25 03:10:41;;;;;;;19.95;5.30;;;;;;;6.28;100.00;94403.44;5075821;28;20097;-85
2023/12/25 03:13:06;;;;;;;15.98;4.38;;;;;;;6.25;100.00;94405.75;5093571;28;20318;-85
2023/12/25 03:15:32;;;;;;;13.65;4.57;;;;;;;6.31;100.00;94408.19;5095710;28;20023;-85
2023/12/25 03:17:57;;;;;;;17.50;5.03;;;;;;;6.26;100.00;94415.91;5095500;28;20024;-85
2023/12/25 03:20:23;;;;;;;17.83;4.80;;;;;;;6.32;100.00;94414.16;5087074;28;20023;-85
2023/12/25 03:22:48;;;;;;;15.02;4.22;;;;;;;6.25;100.00;94401.31;5078917;28;20050;-85
2023/12/25 03:25:14;;;;;;;15.18;3.78;;;;;;;6.13;100.00;94409.22;5095635;28;20031;-84
2023/12/25 03:27:39;;;;;;;17.58;4.53;;;;;;;5.97;100.00;94409.97;5078732;28;20119;-84
2023/12/25 03:30:05;;;;;;;13.85;4.28;;;;;;;5.99;100.00;94408.69;5083334;28;20032;-84
2023/12/25 03:32:31;;;;;;;19.55;4.85;;;;;;;5.86;100.00;94407.22;5076297;28;20032;-84
2023/12/25 03:34:56;;;;;;;12.88;3.83;;;;;;;5.79;100.00;94399.56;5058808;28;20452;-84
2023/12/25 03:37:21;;;;;;;12.65;3.88;;;;;;;5.99;100.00;94387.13;5076366;28;20362;-84
2023/12/25 03:39:47;;;;;;;14.73;4.60;;;;;;;5.74;100.00;94394.31;5075413;28;20460;-84
2023/12/25 03:42:12;;;;;;;20.73;4.78;;;;;;;5.62;100.00;94390.97;5075287;28;20025;-84
2023/12/25 03:44:38;;;;;;;15.93;3.95;;;;;;;5.57;100.00;94401.28;5075234;28;20034;-84
2023/12/25 03:47:03;;;;;;;12.68;3.28;;;;;;;5.70;100.00;94395.00;5058241;28;20037;-84
2023/12/25 03:49:29;;;;;;;12.23;3.13;;;;;;;5.80;100.00;94393.34;5058707;28;20119;-84
2023/12/25 03:51:55;;;;;;;20.58;4.63;;;;;;;5.93;100.00;94394.06;5075274;28;20035;-84
2023/12/25 03:54:22;;;;;;;21.05;4.90;;;;;;;5.99;100.00;94390.50;5058679;28;20024;-84
2023/12/25 03:56:47;;;;;;;17.88;4.75;;;;;;;5.69;100.00;94388.22;5058686;28;20032;-84
2023/12/25 03:59:13;;;;;;;18.33;5.03;;;;;;;5.79;100.00;94399.56;5078949;28;20024;-84
2023/12/25 04:01:38;;;;;;;15.70;3.83;;;;;;;6.04;100.00;94393.22;5079183;28;20025;-84
2023/12/25 04:04:04;;;;;;;14.45;4.32;;;;;;;5.91;100.00;94389.09;5078894;28;20361;-84
2023/12/25 04:06:30;;;;;;;19.75;4.20;;;;;;;5.62;100.00;94391.75;5079050;28;20025;-84
2023/12/25 04:08:55;;;;;;;18.95;4.38;;;;;;;5.54;100.00;94394.75;5078662;28;20054;-84
2023/12/25 04:11:21;;;;;;;14.48;3.97;;;;;;;5.56;100.00;94399.69;5079840;28;20028;-84
2023/12/25 04:13:48;;;;;;;15.73;3.85;;;;;;;5.60;100.00;94393.03;5078803;28;20460;-84
2023/12/25 04:16:20;;;;;;;17.15;3.83;;;;;;;5.75;100.00;94395.06;5062204;28;20094;-84
2023/12/25 04:18:46;;;;;;;17.25;4.32;;;;;;;5.94;100.00;94386.00;5086617;28;20054;-85
2023/12/25 04:21:22;;;;;;;17.55;3.88;;;;;;;5.99;100.00;94390.50;5080820;28;20031;-84
2023/12/25 04:23:48;;;;;;;12.40;3.60;;;;;;;5.98;100.00;94388.94;5079096;28;20341;-84
2023/12/25 04:26:13;;;;;;;15.07;4.25;;;;;;;5.90;100.00;94384.13;5092115;28;20077;-85
2023/12/25 04:28:39;;;;;;;21.83;4.80;;;;;;;5.78;100.00;94379.78;5086822;28;20123;-85
2023/12/25 04:31:04;;;;;;;19.52;5.43;;;;;;;5.54;100.00;94376.56;5092076;28;20030;-85
2023/12/25 04:33:30;;;;;;;16.20;3.80;;;;;;;5.54;100.00;94379.16;5093637;28;20035;-85
2023/12/25 04:35:55;;;;;;;13.20;4.10;;;;;;;5.81;100.00;94375.94;5078435;28;20106;-85
2023/12/25 04:38:20;;;;;;;17.48;4.50;;;;;;;5.64;100.00;94375.94;5078066;28;20020;-85
2023/12/25 04:40:46;;;;;;;13.32;3.60;;;;;;;5.74;100.00;94370.09;5083490;28;20020;-85
2023/12/25 04:43:11;;;;;;;13.50;3.80;;;;;;;5.66;100.00;94371.28;5098397;28;20016;-85
2023/12/25 04:45:37;;;;;;;17.58;3.10;;;;;;;5.70;100.00;94374.97;5081357;28;20034;-85
2023/12/25 04:48:02;;;;;;;15.30;2.88;;;;;;;5.84;100.00;94378.06;5098220;28;20042;-85
2023/12/25 04:50:28;;;;;;;11.40;3.60;;;;;;;5.80;100.00;94376.94;5098163;28;20115;-85
2023/12/25 04:52:53;;;;;;;16.58;3.47;;;;;;;5.91;100.00;94385.72;5098347;28;20020;-85
2023/12/25 04:55:18;;;;;;;10.80;2.92;;;;;;;5.88;100.00;94386.97;5099434;28;20024;-85
2023/12/25 04:57:44;;;;;;;11.95;3.58;;;;;;;6.02;100.00;94384.06;5098220;28;20028;-85
2023/12/25 05:00:10;;;;;;;14.02;3.30;;;;;;;5.71;100.00;94380.97;5098024;28;20424;-85
2023/12/25 05:02:35;;;;;;;10.05;3.42;;;;;;;5.71;100.00;94386.94;5098040;28;20024;-85
2023/12/25 05:05:02;;;;;;;12.07;3.78;;;;;;;5.50;100.00;94386.63;5098031;28;20069;-85
2023/12/25 05:07:28;;;;;;;11.55;3.45;;;;;;;5.41;100.00;94393.22;5081345;28;20441;-85
2023/12/25 05:09:53;;;;;;;16.08;3.83;;;;;;;5.50;100.00;94394.41;5081191;28;20028;-85
2023/12/25 05:12:19;;;;;;;11.20;3.80;;;;;;;5.69;100.00;94396.78;5097854;28;20065;-85
2023/12/25 05:14:45;;;;;;;13.77;3.50;;;;;;;5.42;100.00;94400.00;5098937;28;20027;-85
2023/12/25 05:17:11;;;;;;;13.32;3.40;;;;;;;5.30;100.00;94402.66;5097658;28;20031;-85
2023/12/25 05:19:36;;;;;;;13.00;3.33;;;;;;;5.41;100.00;94405.44;5097762;28;20020;-85
2023/12/25 05:22:04;;;;;;;12.18;3.60;;;;;;;5.58;100.00;94406.25;5097710;28;20190;-85
2023/12/25 05:24:30;;;;;;;13.05;3.97;;;;;;;5.60;100.00;94412.00;5077828;28;20020;-85
2023/12/25 05:26:55;;;;;;;12.65;3.42;;;;;;;5.60;100.00;94417.19;5077491;28;20456;-85
2023/12/25 05:29:20;;;;;;;12.32;3.15;;;;;;;5.67;100.00;94424.84;5077368;28;20027;-85
2023/12/25 05:31:46;;;;;;;9.90;3.55;;;;;;;5.76;100.00;94413.03;5080296;28;20034;-85
2023/12/25 05:34:12;;;;;;;18.70;4.35;;;;;;;5.50;100.00;94424.81;5097476;28;20024;-85
2023/12/25 05:36:37;;;;;;;11.98;3.70;;;;;;;5.26;100.00;94429.31;5080746;28;20036;-85
2023/12/25 05:39:03;;;;;;;15.05;3.60;;;;;;;5.26;100.00;94434.50;5098415;28;20032;-85
2023/12/25 05:41:29;;;;;;;24.13;4.30;;;;;;;5.34;100.00;94437.53;5087593;28;20028;-85
2023/12/25 05:43:54;;;;;;;9.68;3.03;;;;;;;5.42;100.00;94438.19;5075582;28;20036;-85
2023/12/25 05:46:20;;;;;;;14.10;3.60;;;;;;;5.42;100.00;94433.00;5076931;28;20078;-85
2023/12/25 05:48:45;;;;;;;10.80;3.38;;;;;;;5.64;100.00;94446.13;5090025;28;20038;-85
2023/12/25 05:51:12;;;;;;;15.70;3.55;;;;;;;5.69;100.00;94442.81;5096486;28;20079;-92
2023/12/25 05:53:38;;;;;;;13.02;3.63;;;;;;;5.52;100.00;94444.34;5076402;28;20040;-84
2023/12/25 05:56:04;;;;;;;16.00;3.67;;;;;;;5.53;100.00;94445.16;5091648;28;20092;-84
2023/12/25 05:58:29;;;;;;;11.68;3.40;;;;;;;5.43;100.00;94447.56;5097105;28;20028;-84
2023/12/25 06:00:55;;;;;;;13.68;3.45;;;;;;;5.28;100.00;94450.66;5089308;28;20028;-84
2023/12/25 06:03:20;;;;;;;16.05;3.88;;;;;;;5.37;100.00;94454.47;5092808;28;20461;-84
2023/12/25 06:05:45;;;;;;;14.80;3.92;;;;;;;5.56;100.00;94459.47;5096721;28;20027;-84
2023/12/25 06:08:11;;;;;;;11.65;3.08;;;;;;;5.61;100.00;94462.97;5096581;28;20050;-84
2023/12/25 06:10:36;;;;;;;12.02;3.05;;;;;;;5.64;100.00;94461.72;5097016;28;20371;-84
2023/12/25 06:13:02;;;;;;;11.30;2.78;;;;;;;5.70;100.00;94463.38;5093933;28;20021;-84
2023/12/25 06:15:28;;;;;;;18.58;3.33;;;;;;;5.46;100.00;94470.47;5096535;28;20077;-84
2023/12/25 06:17:53;;;;;;;15.10;3.38;;;;;;;5.57;100.00;94477.44;5096466;28;20032;-84
2023/12/25 06:20:20;;;;;;;11.40;2.92;;;;;;;5.83;100.00;94482.28;5097003;28;20039;-84
2023/12/25 06:22:46;;;;;;;12.00;2.55;;;;;;;5.87;100.00;94479.00;5096514;28;20115;-84
2023/12/25 06:25:12;;;;;;;12.02;3.60;;;;;;;5.62;100.00;94485.31;5095945;28;20114;-84
2023/12/25 06:27:37;;;;;;;14.80;2.95;;;;;;;5.46;100.00;94478.28;5079047;28;20024;-85
2023/12/25 06:30:05;;;;;;;21.23;2.80;;;;;;;5.36;100.00;94474.44;5078713;28;20065;-84
2023/12/25 06:32:31;;;;;;;11.48;2.97;;;;;;;5.57;100.00;94485.25;5087984;28;20024;-85
2023/12/25 06:34:56;;;;;;;17.52;3.53;;;;;;;5.71;100.00;94483.13;5086330;28;20089;-86
2023/12/25 06:37:22;;;;;;;19.13;3.63;;;;;;;5.62;100.00;94480.13;5095034;28;20334;-86
2023/12/25 06:39:47;;;;;;;16.38;4.30;;;;;;;5.55;100.00;94473.50;5096380;28;20023;-85
2023/12/25 06:42:13;;;;;;;18.13;4.47;;;;;;;5.72;100.00;94476.13;5093950;28;20031;-85
2023/12/25 06:44:39;;;;;;;11.77;3.45;;;;;;;5.71;100.00;94480.53;5079750;28;20035;-85
2023/12/25 06:47:05;;;;;;;20.33;3.50;;;;;;;5.46;100.00;94479.06;5075876;28;20039;-85
2023/12/25 06:49:31;;;;;;;11.48;2.95;;;;;;;5.22;100.00;94480.94;5075744;28;20024;-85
2023/12/25 06:51:56;;;;;;;18.15;3.03;;;;;;;5.16;100.00;94472.25;5076763;28;20031;-86
2023/12/25 06:54:22;;;;;;;15.98;3.08;;;;;;;5.39;100.00;94481.00;5079263;28;20027;-86
2023/12/25 06:56:48;;;;;;;9.90;2.67;;;;;;;5.64;100.00;94479.91;5092554;28;20032;-85
2023/12/25 06:59:14;;;;;;;12.65;3.08;;;;;;;5.60;100.00;94484.00;5090346;28;20040;-85
2023/12/25 07:01:39;;;;;;;13.45;2.85;;;;;;;5.28;100.00;94481.81;5083057;28;20326;-85
2023/12/25 07:04:06;;;;;;;18.60;3.35;;;;;;;4.94;100.00;94485.06;5096123;28;20032;-86
2023/12/25 07:06:32;;;;;;;11.30;2.75;;;;;;;4.76;100.00;94476.41;5090477;28;20420;-85
2023/12/25 07:08:57;;;;;;;14.40;3.38;;;;;;;4.85;100.00;94486.44;5075445;28;20028;-85
2023/12/25 07:11:23;;;;;;;14.68;3.08;;;;;;;5.12;100.00;94494.53;5089559;28;20050;-85
2023/12/25 07:13:48;;;;;;;13.63;3.15;;;;;;;5.41;100.00;94491.97;5095754;28;20020;-85
2023/12/25 07:16:21;;;;;;;16.63;4.00;;;;;;;5.55;100.00;94495.09;5095641;28;20028;-85
2023/12/25 07:18:51;;;;;;;17.65;3.40;;;;;;;5.64;100.00;94491.06;5096326;28;20035;-85
2023/12/25 07:21:16;;;;;;;12.52;3.75;;;;;;;5.64;100.00;94487.69;5090196;28;20035;-85
2023/12/25 07:23:42;;;;;;;13.77;3.20;;;;;;;5.79;100.00;94487.97;5096289;28;20028;-85
2023/12/25 07:26:07;;;;;;;24.90;3.60;;;;;;;5.49;100.00;94494.19;5095503;28;20028;-85
2023/12/25 07:28:33;;;;;;;16.15;3.55;;;;;;;5.30;100.00;94487.56;5094594;28;20085;-85
2023/12/25 07:31:00;;;;;;;11.07;3.80;;;;;;;5.61;100.00;94488.16;5078786;28;20117;-85
2023/12/25 07:33:27;;;;;;;21.50;3.17;;;;;;;5.74;100.00;94494.88;5097931;28;20824;-85
2023/12/25 07:35:53;;;;;;;13.20;3.35;;;;;;;5.95;100.00;94498.63;5099437;28;20448;-85
2023/12/25 07:38:20;;;;;;;25.10;4.40;;;;;;;5.75;100.00;94496.47;5069372;28;20036;-85
2023/12/25 07:40:48;;;;;;;13.57;4.13;;;;;;;5.76;100.00;94500.63;5094302;28;20349;-86
2023/12/25 07:43:14;;;;;;;20.30;4.20;;;;;;;6.02;100.00;94504.50;5097815;28;20393;-87
2023/12/25 07:45:39;;;;;;;13.57;3.55;;;;;;;6.29;100.00;94508.31;5099999;28;20024;-87
2023/12/25 07:48:05;;;;;;;12.98;3.35;;;;;;;6.45;100.00;94510.13;5100624;28;20077;-88
2023/12/25 07:50:31;;;;;;;11.52;2.95;;;;;;;6.49;100.00;94503.41;5099029;28;20028;-87
2023/12/25 07:52:56;;;;;;;11.27;3.55;;;;;;;6.54;100.00;94505.31;5100726;28;20377;-87
2023/12/25 07:55:22;;;;;;;9.85;2.90;;;;;;;6.40;100.00;94498.84;5081687;28;20039;-87
2023/12/25 07:57:47;;;;;;;12.13;3.92;;;;;;;6.60;100.00;94504.38;5082387;28;20555;-87
2023/12/25 08:00:13;;;;;;;18.88;3.25;;;;;;;6.68;100.00;94510.19;5098759;28;20035;-87
2023/12/25 08:02:39;;;;;;;14.57;3.58;;;;;;;6.75;100.00;94509.00;5099229;28;20336;-87
2023/12/25 08:05:05;;;;;;;22.23;3.15;;;;;;;6.69;100.00;94503.94;5079673;28;20028;-87
2023/12/25 08:07:31;;;;;;;10.48;3.45;;;;;;;6.82;100.00;94500.25;5075431;28;20027;-87
2023/12/25 08:09:56;;;;;;;12.75;2.85;;;;;;;6.71;100.00;94499.28;5082278;28;20059;-87
2023/12/25 08:12:22;;;;;;;14.10;3.20;;;;;;;6.96;100.00;94495.47;5091296;28;20043;-86
2023/12/25 08:14:47;;;;;;;11.55;3.20;;;;;;;7.23;100.00;94505.94;5098190;28;20455;-86
2023/12/25 08:17:13;;;;;;;8.90;3.13;;;;;;;7.46;100.00;94512.75;5088364;28;20031;-87
2023/12/25 08:19:38;;;;;;;9.93;2.80;;;;;;;7.55;100.00;94512.31;5099083;28;20031;-86
2023/12/25 08:22:04;;;;;;;12.45;3.05;;;;;;;7.64;100.00;94523.91;5075703;28;20049;-86
2023/12/25 08:24:29;;;;;;;17.38;3.47;;;;;;;7.67;100.00;94536.44;5098479;28;20118;-86
2023/12/25 08:26:54;;;;;;;7.10;2.70;;;;;;;7.61;100.00;94535.59;5086182;28;20385;-86
2023/12/25 08:29:20;;;;;;;10.30;2.95;;;;;;;7.71;100.00;94540.13;5080910;28;20024;-86
2023/12/25 08:31:45;;;;;;;13.85;3.03;;;;;;;7.36;100.00;94539.47;5099759;28;20019;-86
2023/12/25 08:34:11;;;;;;;14.20;3.30;;;;;;;7.36;100.00;94536.88;5094674;28;20044;-86
2023/12/25 08:36:36;;;;;;;15.43;3.28;;;;;;;7.57;100.00;94542.34;5078374;28;20027;-86
2023/12/25 08:39:02;;;;;;;12.18;3.53;;;;;;;7.81;100.00;94549.13;5092083;28;20337;-86
2023/12/25 08:41:27;;;;;;;13.68;2.92;;;;;;;7.84;100.00;94543.41;5098031;28;20054;-86
2023/12/25 08:43:53;;;;;;;10.63;2.30;;;;;;;7.86;100.00;94543.94;5097275;28;20030;-86
2023/12/25 08:46:18;;;;;;;12.98;2.65;;;;;;;8.04;100.00;94543.63;5098476;28;20020;-87
2023/12/25 08:48:43;;;;;;;11.02;2.83;;;;;;;8.16;100.00;94553.09;5098314;28;20035;-86
2023/12/25 08:51:09;;;;;;;11.85;2.80;;;;;;;8.14;100.00;94561.19;5098304;28;20028;-87
2023/12/25 08:53:35;;;;;;;14.73;2.85;;;;;;;8.33;100.00;94553.00;5098940;28;20023;-86
2023/12/25 08:56:01;;;;;;;12.63;2.92;;;;;;;8.39;100.00;94556.44;5098004;28;20141;-87
2023/12/25 08:58:29;;;;;;;12.95;3.03;;;;;;;8.43;100.00;94560.94;5081261;28;20058;-86
2023/12/25 09:00:54;;;;;;;12.60;2.90;;;;;;;8.60;100.00;94563.44;5078668;28;20326;-87
2023/12/25 09:03:20;;;;;;;13.40;2.95;;;;;;;8.60;100.00;94563.44;5081258;28;20027;-87
2023/12/25 09:05:45;;;;;;;10.30;2.80;;;;;;;8.66;100.00;94563.47;5097523;28;20024;-87
2023/12/25 09:08:11;;;;;;;12.73;2.63;;;;;;;8.82;100.00;94574.81;5081363;28;20039;-87
2023/12/25 09:10:36;;;;;;;17.33;3.15;;;;;;;8.98;100.00;94581.75;5097951;28;20024;-86
2023/12/25 09:13:03;;;;;;;11.93;3.28;;;;;;;9.04;100.00;94578.13;5094086;28;20103;-86
2023/12/25 09:15:28;;;;;;;9.95;2.75;;;;;;;9.13;100.00;94580.28;5077412;28;20027;-86
2023/12/25 09:17:54;;;;;;;6.47;2.05;;;;;;;9.29;100.00;94588.97;5077494;28;20446;-86
2023/12/25 09:20:19;;;;;;;9.82;3.17;;;;;;;9.33;100.00;94587.44;5077578;28;20099;-86
2023/12/25 09:22:45;;;;;;;11.00;2.90;;;;;;;9.12;100.00;94589.91;5091426;28;20033;-86
2023/12/25 09:25:10;;;;;;;10.82;2.80;;;;;;;9.29;100.00;94583.75;5098920;28;20020;-86
2023/12/25 09:27:36;;;;;;;10.27;2.70;;;;;;;9.38;100.00;94587.47;5096975;28;20110;-86
2023/12/25 09:30:02;;;;;;;11.95;3.00;;;;;;;9.19;100.00;94580.03;5094073;28;20023;-86
2023/12/25 09:32:28;;;;;;;7.80;2.38;;;;;;;9.28;100.00;94582.16;5091403;28;20029;-86
2023/12/25 09:34:53;;;;;;;11.05;2.72;;;;;;;9.35;100.00;94580.13;5085604;28;20081;-86
2023/12/25 09:37:19;;;;;;;13.68;3.35;;;;;;;9.38;100.00;94582.22;5097489;28;20028;-86
2023/12/25 09:39:45;;;;;;;11.20;2.20;;;;;;;9.43;100.00;94576.25;5080763;28;20078;-86
2023/12/25 09:42:11;;;;;;;16.63;3.15;;;;;;;9.57;100.00;94579.16;5097399;28;20043;-86
2023/12/25 09:44:37;;;;;;;13.23;2.88;;;;;;;9.64;100.00;94590.19;5097203;28;20107;-86
2023/12/25 09:47:07;;;;;;;9.63;3.58;;;;;;;9.80;100.00;94587.66;5097097;28;20333;-86
2023/12/25 09:49:35;;;;;;;10.38;3.00;;;;;;;9.78;100.00;94577.44;5097269;28;20445;-86
2023/12/25 09:52:02;;;;;;;9.38;2.75;;;;;;;9.83;100.00;94576.66;5080444;28;20054;-86
2023/12/25 09:54:27;;;;;;;13.07;2.80;;;;;;;9.87;100.00;94577.72;5096565;28;20077;-86
2023/12/25 09:56:55;;;;;;;9.68;2.15;;;;;;;9.99;100.00;94577.50;5098195;28;20433;-86
2023/12/25 09:59:21;;;;;;;9.23;2.30;;;;;;;10.04;100.00;94586.16;5097019;28;20028;-86
2023/12/25 10:01:47;;;;;;;14.85;2.83;;;;;;;10.15;100.00;94578.31;5097015;28;20099;-86
2023/12/25 10:04:13;;;;;;;11.27;2.53;;;;;;;10.14;100.00;94580.16;5080293;28;20036;-86
2023/12/25 10:06:42;;;;;;;12.63;2.53;;;;;;;10.18;100.00;94578.59;5080157;28;20024;-86
2023/12/25 10:09:07;;;;;;;6.28;2.33;;;;;;;10.18;100.00;94588.25;5097948;28;20110;-86
2023/12/25 10:11:33;;;;;;;6.85;2.38;;;;;;;10.32;100.00;94583.31;5080307;28;20020;-86
2023/12/25 10:14:01;;;;;;;7.88;2.20;;;;;;;10.41;100.00;94587.03;5096568;28;20120;-86
2023/12/25 10:16:27;;;;;;;16.20;2.65;;;;;;;10.30;100.00;94580.94;5097868;28;20073;-86
2023/12/25 10:18:55;;;;;;;12.75;2.00;;;;;;;10.30;100.00;94580.19;5096592;28;20032;-86
2023/12/25 10:21:21;;;;;;;9.38;2.33;;;;;;;10.25;100.00;94578.34;5096649;28;20419;-86
2023/12/25 10:23:47;;;;;;;4.80;2.25;;;;;;;10.33;100.00;94577.84;5096516;28;20111;-86
2023/12/25 10:26:13;;;;;;;11.75;2.70;;;;;;;10.47;100.00;94579.94;5096447;28;20441;-86
2023/12/25 10:28:38;;;;;;;11.60;2.13;;;;;;;10.54;100.00;94579.69;5079410;28;20111;-86
2023/12/25 10:31:06;;;;;;;11.35;2.75;;;;;;;10.41;100.00;94578.38;5096332;28;20035;-86
2023/12/25 10:33:32;;;;;;;9.00;2.20;;;;;;;10.53;100.00;94573.69;5096441;28;20344;-86
2023/12/25 10:36:05;;;;;;;16.52;2.53;;;;;;;10.65;100.00;94575.25;5079656;28;20122;-86
2023/12/25 10:38:35;;;;;;;;;;;;;;;10.81;100.00;94573.41;5079947;28;20047;-86
2023/12/25 10:41:25;;;;;;;10.73;2.55;;;;;;;10.83;100.00;94572.09;5096197;28;20272;-86
2023/12/25 10:43:55;;;;;;;12.13;2.38;;;;;;;10.98;100.00;94570.53;5097349;28;20032;-86
2023/12/25 10:46:35;;;;;;;10.80;2.88;;;;;;;10.96;100.00;94564.75;5095941;28;20035;-87
2023/12/25 10:49:03;;;;;;;6.50;2.55;;;;;;;10.87;100.00;94567.91;5097489;28;20039;-86
2023/12/25 10:51:32;;;;;;;15.38;3.28;;;;;;;11.01;100.00;94565.53;5078960;28;20506;-86
2023/12/25 10:54:03;;;;;;;10.20;2.60;;;;;;;11.13;100.00;94565.25;5096013;28;20047;-86
2023/12/25 10:56:31;;;;;;;10.82;2.85;;;;;;;11.20;100.00;94564.97;5095988;28;20024;-87
2023/12/25 10:59:05;;;;;;;11.77;2.35;;;;;;;11.20;100.00;94558.97;5095829;28;20058;-86
2023/12/25 11:01:30;;;;;;;10.27;2.50;;;;;;;11.22;100.00;94562.09;5097228;28;20375;-86
2023/12/25 11:03:57;;;;;;;12.88;2.75;;;;;;;11.13;100.00;94560.00;5095761;28;20081;-86
2023/12/25 11:06:22;;;;;;;6.28;2.22;;;;;;;11.15;100.00;94562.38;5095790;28;20067;-86
2023/12/25 11:08:48;;;;;;;7.03;2.85;;;;;;;11.24;100.00;94552.91;5095734;28;20028;-87
2023/12/25 11:11:13;;;;;;;10.98;2.35;;;;;;;11.34;100.00;94548.69;5097180;28;20032;-86
2023/12/25 11:13:40;;;;;;;13.00;2.95;;;;;;;11.46;100.00;94549.16;5096036;28;20059;-86
2023/12/25 11:16:07;;;;;;;12.70;2.40;;;;;;;11.44;100.00;94548.66;5095705;28;20034;-86
2023/12/25 11:18:36;;;;;;;10.45;2.60;;;;;;;11.46;100.00;94543.94;5095443;28;20081;-86